createdAt,value
2017-07-23T00:02:21.441Z,67.20
2017-07-23T00:04:48.939Z,67.40
2017-07-23T00:07:17.177Z,68.20
2017-07-23T00:09:44.653Z,68.10
2017-07-23T00:12:12.221Z,68.40
2017-07-23T00:14:40.534Z,68.70
2017-07-23T00:17:08.004Z,68.70
2017-07-23T00:19:35.493Z,68.80
2017-07-23T00:22:02.960Z,68.70
2017-07-23T00:24:30.525Z,68.30
2017-07-23T00:26:59.129Z,69.10
2017-07-23T00:29:26.592Z,68.40
2017-07-23T00:31:54.176Z,68.20
2017-07-23T00:34:21.668Z,67.40
2017-07-23T00:36:49.145Z,67.10
2017-07-23T00:39:17.416Z,67.20
2017-07-23T00:41:45.673Z,67.80
2017-07-23T00:44:13.141Z,67.80
2017-07-23T00:46:40.609Z,67.80
2017-07-23T00:49:08.865Z,74.30
2017-07-23T00:51:36.332Z,74.20
2017-07-23T00:54:03.801Z,74.20
2017-07-23T00:56:32.068Z,75.80
2017-07-23T00:59:00.305Z,77.40
2017-07-23T01:01:27.777Z,76.80
2017-07-23T01:03:55.272Z,77.30
2017-07-23T01:06:23.516Z,77.30
2017-07-23T01:08:50.985Z,78.00
2017-07-23T01:11:18.808Z,77.80
2017-07-23T01:13:46.285Z,78.30
2017-07-23T01:16:13.753Z,77.40
2017-07-23T01:18:41.245Z,77.60
2017-07-23T01:21:09.041Z,78.60
2017-07-23T01:23:36.509Z,79.40
2017-07-23T01:26:04.003Z,80.20
2017-07-23T01:28:32.245Z,80.90
2017-07-23T01:30:59.712Z,80.80
2017-07-23T01:33:27.201Z,80.00
2017-07-23T01:35:55.438Z,81.50
2017-07-23T01:38:22.904Z,81.50
2017-07-23T01:40:50.638Z,81.50
2017-07-23T01:43:18.108Z,82.00
2017-07-23T01:45:45.582Z,81.30
2017-07-23T01:48:13.086Z,80.90
2017-07-23T01:50:40.559Z,81.20
2017-07-23T01:53:08.029Z,81.10
2017-07-23T01:55:35.518Z,81.20
2017-07-23T01:58:02.989Z,81.30
2017-07-23T02:00:31.225Z,82.30
2017-07-23T02:02:58.725Z,82.10
2017-07-23T02:05:26.961Z,80.80
2017-07-23T02:07:54.432Z,80.10
2017-07-23T02:10:21.921Z,80.70
2017-07-23T02:12:50.153Z,80.20
2017-07-23T02:15:17.628Z,80.30
2017-07-23T02:17:45.113Z,79.70
2017-07-23T02:20:13.349Z,79.80
2017-07-23T02:22:40.825Z,79.80
2017-07-23T02:25:08.316Z,80.20
2017-07-23T02:27:35.785Z,80.00
2017-07-23T02:30:03.252Z,81.20
2017-07-23T02:32:30.760Z,82.50
2017-07-23T02:34:58.998Z,83.40
2017-07-23T02:37:26.469Z,83.50
2017-07-23T02:39:54.206Z,83.40
2017-07-23T02:42:21.677Z,83.00
2017-07-23T02:44:49.146Z,83.10
2017-07-23T02:47:17.433Z,85.20
2017-07-23T02:49:44.909Z,84.80
2017-07-23T02:52:13.433Z,85.70
2017-07-23T02:54:40.925Z,85.70
2017-07-23T02:57:08.394Z,87.00
2017-07-23T02:59:35.869Z,90.20
2017-07-23T03:02:04.477Z,91.10
2017-07-23T03:04:31.949Z,91.10
2017-07-23T03:06:59.417Z,92.20
2017-07-23T03:09:26.913Z,92.60
2017-07-23T03:11:55.153Z,93.00
2017-07-23T03:14:22.898Z,93.00
2017-07-23T03:16:50.393Z,92.50
2017-07-23T03:19:17.861Z,93.00
2017-07-23T03:21:46.105Z,93.60
2017-07-23T03:24:13.600Z,93.40
2017-07-23T03:26:42.124Z,94.30
2017-07-23T03:29:09.593Z,94.40
2017-07-23T03:31:37.093Z,94.60
2017-07-23T03:34:05.333Z,94.80
2017-07-23T03:36:33.021Z,94.70
2017-07-23T03:39:00.512Z,94.70
2017-07-23T03:41:28.050Z,94.80
2017-07-23T03:43:56.290Z,95.10
2017-07-23T03:46:23.776Z,95.10
2017-07-23T03:48:51.246Z,95.60
2017-07-23T03:51:19.484Z,96.60
2017-07-23T03:53:46.985Z,96.60
2017-07-23T03:56:14.465Z,96.60
2017-07-23T03:58:41.942Z,96.80
2017-07-23T04:01:09.445Z,96.80
2017-07-23T04:03:37.681Z,96.30
2017-07-23T04:06:05.531Z,96.30
2017-07-23T04:08:33.848Z,94.60
2017-07-23T04:11:01.316Z,94.60
2017-07-23T04:13:29.594Z,96.00
2017-07-23T04:15:57.852Z,94.90
2017-07-23T04:18:25.321Z,94.90
2017-07-23T04:20:53.566Z,95.30
2017-07-23T04:23:21.078Z,95.30
2017-07-23T04:25:48.553Z,95.90
2017-07-23T04:28:16.029Z,96.10
2017-07-23T04:30:43.524Z,96.10
2017-07-23T04:33:11.977Z,96.60
2017-07-23T04:35:39.445Z,96.30
2017-07-23T04:38:07.041Z,96.10
2017-07-23T04:40:34.513Z,96.20
2017-07-23T04:43:01.981Z,96.10
2017-07-23T04:45:29.473Z,96.30
2017-07-23T04:47:56.949Z,96.40
2017-07-23T04:50:24.417Z,96.70
2017-07-23T04:52:52.937Z,96.60
2017-07-23T04:55:20.409Z,96.60
2017-07-23T04:57:47.913Z,97.00
2017-07-23T05:00:16.420Z,97.20
2017-07-23T05:02:43.893Z,97.20
2017-07-23T05:05:11.365Z,97.30
2017-07-23T05:07:38.857Z,97.50
2017-07-23T05:10:07.094Z,97.00
2017-07-23T05:12:34.646Z,97.00
2017-07-23T05:15:02.302Z,96.70
2017-07-23T05:17:29.788Z,97.00
2017-07-23T05:19:57.258Z,97.10
2017-07-23T05:22:24.757Z,97.20
2017-07-23T05:24:52.234Z,96.70
2017-07-23T05:27:20.049Z,97.40
2017-07-23T05:29:48.305Z,97.60
2017-07-23T05:32:15.777Z,97.60
2017-07-23T05:34:44.306Z,97.60
2017-07-23T05:37:11.797Z,97.60
2017-07-23T05:39:39.273Z,97.40
2017-07-23T05:42:07.509Z,97.60
2017-07-23T05:44:35.000Z,97.60
2017-07-23T05:47:02.473Z,97.10
2017-07-23T05:49:30.705Z,96.80
2017-07-23T05:51:58.280Z,96.80
2017-07-23T05:54:25.753Z,97.20
2017-07-23T05:56:54.280Z,96.70
2017-07-23T05:59:21.774Z,97.00
2017-07-23T06:01:49.268Z,97.00
2017-07-23T06:04:16.737Z,96.60
2017-07-23T06:06:44.238Z,96.80
2017-07-23T06:09:11.709Z,96.80
2017-07-23T06:11:39.177Z,97.20
2017-07-23T06:14:07.437Z,96.70
2017-07-23T06:16:34.913Z,96.80
2017-07-23T06:19:03.157Z,97.20
2017-07-23T06:21:30.761Z,97.20
2017-07-23T06:23:59.000Z,95.40
2017-07-23T06:26:26.474Z,95.40
2017-07-23T06:28:54.733Z,94.90
2017-07-23T06:31:22.201Z,95.10
2017-07-23T06:33:49.668Z,95.50
2017-07-23T06:36:18.192Z,95.50
2017-07-23T06:38:45.705Z,95.50
2017-07-23T06:41:14.032Z,95.90
2017-07-23T06:43:41.520Z,96.00
2017-07-23T06:46:08.989Z,94.00
2017-07-23T06:48:36.459Z,94.60
2017-07-23T06:51:04.717Z,92.50
2017-07-23T06:53:32.185Z,92.40
2017-07-23T06:56:00.425Z,92.80
2017-07-23T06:58:27.924Z,92.80
2017-07-23T07:00:56.721Z,92.20
2017-07-23T07:03:24.965Z,90.90
2017-07-23T07:05:52.543Z,90.90
2017-07-23T07:08:20.785Z,90.70
2017-07-23T07:10:48.255Z,90.70
2017-07-23T07:13:15.756Z,91.70
2017-07-23T07:15:43.233Z,88.90
2017-07-23T07:18:10.701Z,90.00
2017-07-23T07:20:38.224Z,88.50
2017-07-23T07:23:05.712Z,89.50
2017-07-23T07:25:33.177Z,90.20
2017-07-23T07:28:00.714Z,91.30
2017-07-23T07:30:28.192Z,90.20
2017-07-23T07:32:55.665Z,91.60
2017-07-23T07:35:23.153Z,89.20
2017-07-23T07:37:51.388Z,89.20
2017-07-23T07:40:18.863Z,89.10
2017-07-23T07:42:46.353Z,90.00
2017-07-23T07:45:13.833Z,90.10
2017-07-23T07:47:41.314Z,92.10
2017-07-23T07:50:08.853Z,91.20
2017-07-23T07:52:36.339Z,86.40
2017-07-23T07:55:03.821Z,89.30
2017-07-23T07:57:32.080Z,87.00
2017-07-23T07:59:59.549Z,86.90
2017-07-23T08:02:27.028Z,86.30
2017-07-23T08:04:54.521Z,87.20
2017-07-23T08:07:21.989Z,86.80
2017-07-23T08:09:49.461Z,87.80
2017-07-23T08:12:16.953Z,90.40
2017-07-23T08:14:45.464Z,88.30
2017-07-23T08:17:19.860Z,88.20
2017-07-23T08:19:47.441Z,89.40
2017-07-23T08:22:14.909Z,86.60
2017-07-23T08:24:42.417Z,86.90
2017-07-23T08:27:10.652Z,82.80
2017-07-23T08:29:38.121Z,82.80
2017-07-23T08:32:05.613Z,81.10
2017-07-23T08:34:33.849Z,73.40
2017-07-23T08:37:01.321Z,73.40
2017-07-23T08:39:28.809Z,68.50
2017-07-23T08:41:56.297Z,72.50
2017-07-23T08:44:23.765Z,70.30
2017-07-23T08:46:51.270Z,68.00
2017-07-23T08:49:18.785Z,68.80
2017-07-23T08:51:46.252Z,65.80
2017-07-23T08:54:13.757Z,65.80
2017-07-23T08:56:41.233Z,67.60
2017-07-23T08:59:08.710Z,68.10
2017-07-23T09:01:36.201Z,69.90
2017-07-23T09:04:03.669Z,63.90
2017-07-23T09:06:31.909Z,64.50
2017-07-23T09:08:59.445Z,64.50
2017-07-23T09:11:26.921Z,61.70
2017-07-23T09:13:54.435Z,63.10
2017-07-23T09:16:21.951Z,61.50
2017-07-23T09:18:49.421Z,62.50
2017-07-23T09:21:17.661Z,60.80
2017-07-23T09:23:45.160Z,60.70
2017-07-23T09:26:13.397Z,62.30
2017-07-23T09:28:40.875Z,61.50
2017-07-23T09:31:08.602Z,60.40
2017-07-23T09:33:36.086Z,60.80
2017-07-23T09:36:03.568Z,60.60
2017-07-23T09:38:31.885Z,60.00
2017-07-23T09:40:59.358Z,60.00
2017-07-23T09:43:26.830Z,60.10
2017-07-23T09:45:54.320Z,59.50
2017-07-23T09:48:22.557Z,60.80
2017-07-23T09:50:50.025Z,60.70
2017-07-23T09:53:17.523Z,60.90
2017-07-23T09:55:44.993Z,63.90
2017-07-23T09:58:12.561Z,64.80
2017-07-23T10:00:40.061Z,65.00
2017-07-23T10:03:07.629Z,62.80
2017-07-23T10:05:35.097Z,64.10
2017-07-23T10:08:03.530Z,64.70
2017-07-23T10:10:31.282Z,64.70
2017-07-23T10:12:58.753Z,65.00
2017-07-23T10:15:26.806Z,65.90
2017-07-23T10:17:55.767Z,64.90
2017-07-23T10:20:23.329Z,65.00
2017-07-23T10:22:51.588Z,64.00
2017-07-23T10:25:21.241Z,61.60
2017-07-23T10:27:49.525Z,61.60
2017-07-23T10:30:17.602Z,60.80
2017-07-23T10:32:46.373Z,62.40
2017-07-23T10:35:14.742Z,62.10
2017-07-23T10:37:42.245Z,62.00
2017-07-23T10:40:09.713Z,60.90
2017-07-23T10:42:37.181Z,59.70
2017-07-23T10:45:05.447Z,60.30
2017-07-23T10:47:32.921Z,61.10
2017-07-23T10:50:01.189Z,58.80
2017-07-23T10:52:29.450Z,58.60
2017-07-23T10:54:56.921Z,58.50
2017-07-23T10:57:25.156Z,57.30
2017-07-23T10:59:52.648Z,57.10
2017-07-23T11:02:20.120Z,57.40
2017-07-23T11:04:48.636Z,58.10
2017-07-23T11:07:16.174Z,58.10
2017-07-23T11:09:43.648Z,57.00
2017-07-23T11:12:11.121Z,58.50
2017-07-23T11:14:38.621Z,58.40
2017-07-23T11:17:06.866Z,58.00
2017-07-23T11:19:34.339Z,58.00
2017-07-23T11:22:01.825Z,57.00
2017-07-23T11:24:29.302Z,58.60
2017-07-23T11:26:56.773Z,56.80
2017-07-23T11:29:24.260Z,60.20
2017-07-23T11:31:51.896Z,58.30
2017-07-23T11:34:19.365Z,54.70
2017-07-23T11:36:46.857Z,52.30
2017-07-23T11:39:15.185Z,52.00
2017-07-23T11:41:42.684Z,51.20
2017-07-23T11:44:10.172Z,53.20
2017-07-23T11:46:37.642Z,53.70
2017-07-23T11:49:05.161Z,55.00
2017-07-23T11:51:33.417Z,50.30
2017-07-23T11:54:00.896Z,50.40
2017-07-23T11:56:29.133Z,48.50
2017-07-23T11:58:56.625Z,48.60
2017-07-23T12:01:24.864Z,45.00
2017-07-23T12:03:52.344Z,45.10
2017-07-23T12:06:19.916Z,48.00
2017-07-23T12:08:48.192Z,43.40
2017-07-23T12:11:16.429Z,44.10
2017-07-23T12:13:43.921Z,44.10
2017-07-23T12:16:11.389Z,41.40
2017-07-23T12:18:39.824Z,41.80
2017-07-23T12:21:08.130Z,41.80
2017-07-23T12:23:35.605Z,41.80
2017-07-23T12:26:03.841Z,45.50
2017-07-23T12:28:31.576Z,45.30
2017-07-23T12:30:59.341Z,43.60
2017-07-23T12:33:26.813Z,43.30
2017-07-23T12:35:54.341Z,45.00
2017-07-23T12:38:21.850Z,42.70
2017-07-23T12:40:49.321Z,45.60
2017-07-23T12:43:16.813Z,44.00
2017-07-23T12:45:44.286Z,44.60
2017-07-23T12:48:11.801Z,45.10
2017-07-23T12:50:40.060Z,46.20
2017-07-23T12:53:07.530Z,46.10
2017-07-23T12:55:35.805Z,46.10
2017-07-23T12:58:04.072Z,48.60
2017-07-23T13:00:31.541Z,48.50
2017-07-23T13:02:59.773Z,46.80
2017-07-23T13:05:27.268Z,46.60
2017-07-23T13:07:55.505Z,48.80
2017-07-23T13:10:23.055Z,48.50
2017-07-23T13:12:50.563Z,47.40
2017-07-23T13:15:18.805Z,47.30
2017-07-23T13:17:46.277Z,47.30
2017-07-23T13:20:13.765Z,46.50
2017-07-23T13:22:42.005Z,48.60
2017-07-23T13:25:09.473Z,48.60
2017-07-23T13:27:36.981Z,48.10
2017-07-23T13:30:04.454Z,47.70
2017-07-23T13:32:31.929Z,47.00
2017-07-23T13:34:59.417Z,47.80
2017-07-23T13:37:27.657Z,48.30
2017-07-23T13:39:55.397Z,48.30
2017-07-23T13:42:22.901Z,47.80
2017-07-23T13:44:50.518Z,47.00
2017-07-23T13:47:18.217Z,48.30
2017-07-23T13:49:45.963Z,47.30
2017-07-23T13:52:13.433Z,47.30
2017-07-23T13:54:40.901Z,49.00
2017-07-23T13:57:08.420Z,48.90
2017-07-23T13:59:35.892Z,49.00
2017-07-23T14:02:03.633Z,46.30
2017-07-23T14:04:31.157Z,47.60
2017-07-23T14:06:59.393Z,46.80
2017-07-23T14:09:26.861Z,46.80
2017-07-23T14:11:54.356Z,47.30
2017-07-23T14:14:21.833Z,46.60
2017-07-23T14:16:49.306Z,45.90
2017-07-23T14:19:16.817Z,46.80
2017-07-23T14:21:45.050Z,47.10
2017-07-23T14:24:12.518Z,47.10
2017-07-23T14:26:40.150Z,47.50
2017-07-23T14:29:08.527Z,49.00
2017-07-23T14:31:36.009Z,49.00
2017-07-23T14:34:03.497Z,48.40
2017-07-23T14:36:31.741Z,47.50
2017-07-23T14:38:59.290Z,47.40
2017-07-23T14:41:26.804Z,47.50
2017-07-23T14:43:54.297Z,48.30
2017-07-23T14:46:21.765Z,47.10
2017-07-23T14:48:49.257Z,48.30
2017-07-23T14:51:17.493Z,47.30
2017-07-23T14:53:44.965Z,47.30
2017-07-23T14:56:12.453Z,47.60
2017-07-23T14:58:40.689Z,48.70
2017-07-23T15:01:08.189Z,48.70
2017-07-23T15:03:36.446Z,49.40
2017-07-23T15:06:04.684Z,49.50
2017-07-23T15:08:32.153Z,49.40
2017-07-23T15:10:59.645Z,49.20
2017-07-23T15:13:27.885Z,48.70
2017-07-23T15:15:55.356Z,48.80
2017-07-23T15:18:22.849Z,48.10
2017-07-23T15:20:50.317Z,47.70
2017-07-23T15:23:17.788Z,47.60
2017-07-23T15:25:45.280Z,49.10
2017-07-23T15:28:13.009Z,48.40
2017-07-23T15:30:40.521Z,48.50
2017-07-23T15:33:08.781Z,50.30
2017-07-23T15:35:36.249Z,50.00
2017-07-23T15:38:04.485Z,50.60
2017-07-23T15:40:31.978Z,50.10
2017-07-23T15:42:59.450Z,48.90
2017-07-23T15:45:27.690Z,50.20
2017-07-23T15:47:55.188Z,50.10
2017-07-23T15:50:22.662Z,49.50
2017-07-23T15:52:50.132Z,50.50
2017-07-23T15:55:17.620Z,51.40
2017-07-23T15:57:45.095Z,50.70
2017-07-23T16:00:12.570Z,49.60
2017-07-23T16:02:40.828Z,50.40
2017-07-23T16:05:08.385Z,50.30
2017-07-23T16:07:36.963Z,49.40
2017-07-23T16:10:04.457Z,49.40
2017-07-23T16:12:31.934Z,48.50
2017-07-23T16:14:59.409Z,49.40
2017-07-23T16:17:27.021Z,49.70
2017-07-23T16:19:55.261Z,48.40
2017-07-23T16:22:22.792Z,48.40
2017-07-23T16:24:50.296Z,49.50
2017-07-23T16:27:18.533Z,49.50
2017-07-23T16:29:46.310Z,49.50
2017-07-23T16:32:13.851Z,50.60
2017-07-23T16:34:41.365Z,49.80
2017-07-23T16:37:09.602Z,49.60
2017-07-23T16:39:37.093Z,49.60
2017-07-23T16:42:05.332Z,51.30
2017-07-23T16:44:32.801Z,51.20
2017-07-23T16:47:00.321Z,49.70
2017-07-23T16:49:27.792Z,50.00
2017-07-23T16:51:55.644Z,50.60
2017-07-23T16:54:23.473Z,50.00
2017-07-23T16:56:51.709Z,49.50
2017-07-23T16:59:19.182Z,49.50
2017-07-23T17:01:46.677Z,48.70
2017-07-23T17:04:14.151Z,49.20
2017-07-23T17:06:41.625Z,50.50
2017-07-23T17:09:09.112Z,50.40
2017-07-23T17:11:36.833Z,50.00
2017-07-23T17:14:04.323Z,51.30
2017-07-23T17:16:32.594Z,52.70
2017-07-23T17:19:00.342Z,53.10
2017-07-23T17:21:27.849Z,51.80
2017-07-23T17:23:56.217Z,51.40
2017-07-23T17:26:24.453Z,51.20
2017-07-23T17:28:51.921Z,51.20
2017-07-23T17:31:19.413Z,49.40
2017-07-23T17:33:47.648Z,50.40
2017-07-23T17:36:15.237Z,50.40
2017-07-23T17:38:43.501Z,51.00
2017-07-23T17:41:10.981Z,50.50
2017-07-23T17:43:39.219Z,50.40
2017-07-23T17:46:06.709Z,50.30
2017-07-23T17:48:34.945Z,52.60
2017-07-23T17:51:02.413Z,52.50
2017-07-23T17:53:29.905Z,52.50
2017-07-23T17:55:58.147Z,52.40
2017-07-23T17:58:25.904Z,52.50
2017-07-23T18:00:53.413Z,53.00
2017-07-23T18:03:20.901Z,54.10
2017-07-23T18:05:48.390Z,53.50
2017-07-23T18:08:15.889Z,52.60
2017-07-23T18:10:43.358Z,54.30
2017-07-23T18:13:10.825Z,53.40
2017-07-23T18:15:38.478Z,53.00
2017-07-23T18:18:05.996Z,53.90
2017-07-23T18:20:34.241Z,54.50
2017-07-23T18:23:01.730Z,54.40
2017-07-23T18:25:30.210Z,56.00
2017-07-23T18:27:58.449Z,55.50
2017-07-23T18:30:25.941Z,55.50
2017-07-23T18:32:54.177Z,55.00
2017-07-23T18:35:21.648Z,55.00
2017-07-23T18:37:49.139Z,55.70
2017-07-23T18:40:17.377Z,57.30
2017-07-23T18:42:44.877Z,57.20
2017-07-23T18:45:12.385Z,57.30
2017-07-23T18:47:39.857Z,58.20
2017-07-23T18:50:07.324Z,58.00
2017-07-23T18:52:34.933Z,58.40
2017-07-23T18:55:02.405Z,60.00
2017-07-23T18:57:29.881Z,58.20
2017-07-23T18:59:57.385Z,60.00
2017-07-23T19:02:25.621Z,60.50
2017-07-23T19:04:53.094Z,60.50
2017-07-23T19:07:21.365Z,60.10
2017-07-23T19:09:49.013Z,60.10
2017-07-23T19:12:16.489Z,60.30
2017-07-23T19:14:44.753Z,61.50
2017-07-23T19:17:12.472Z,61.50
2017-07-23T19:19:40.019Z,60.40
2017-07-23T19:22:07.561Z,60.30
2017-07-23T19:24:35.033Z,60.20
2017-07-23T19:27:02.513Z,60.40
2017-07-23T19:29:30.049Z,61.50
2017-07-23T19:31:57.517Z,62.70
2017-07-23T19:34:25.145Z,64.30
2017-07-23T19:36:53.410Z,68.00
2017-07-23T19:39:21.648Z,69.20
2017-07-23T19:41:49.118Z,68.60
2017-07-23T19:44:16.621Z,70.00
2017-07-23T19:46:44.350Z,70.60
2017-07-23T19:49:11.829Z,71.40
2017-07-23T19:51:40.346Z,71.40
2017-07-23T19:54:07.818Z,71.40
2017-07-23T19:56:36.057Z,74.10
2017-07-23T19:59:03.585Z,74.00
2017-07-23T20:01:31.053Z,72.40
2017-07-23T20:03:59.322Z,73.80
2017-07-23T20:06:26.845Z,73.80
2017-07-23T20:08:54.321Z,70.90
2017-07-23T20:11:22.044Z,71.30
2017-07-23T20:13:50.117Z,71.60
2017-07-23T20:16:17.588Z,74.40
2017-07-23T20:18:45.060Z,74.40
2017-07-23T20:21:12.564Z,75.70
2017-07-23T20:23:40.041Z,74.30
2017-07-23T20:26:07.537Z,74.80
2017-07-23T20:28:35.032Z,75.30
2017-07-23T20:31:02.501Z,76.30
2017-07-23T20:33:29.969Z,77.20
2017-07-23T20:35:57.464Z,78.00
2017-07-23T20:38:24.933Z,78.90
2017-07-23T20:40:52.923Z,79.10
2017-07-23T20:43:21.303Z,79.80
2017-07-23T20:45:49.549Z,79.40
2017-07-23T20:48:17.129Z,79.40
2017-07-23T20:50:45.394Z,78.90
2017-07-23T20:53:12.883Z,78.90
2017-07-23T20:55:40.409Z,79.10
2017-07-23T20:58:07.901Z,78.70
2017-07-23T21:00:35.393Z,81.10
2017-07-23T21:03:02.976Z,82.20
2017-07-23T21:05:30.465Z,81.20
2017-07-23T21:07:58.205Z,81.70
2017-07-23T21:10:25.677Z,82.20
2017-07-23T21:12:54.068Z,81.10
2017-07-23T21:15:21.542Z,81.10
2017-07-23T21:17:49.013Z,80.70
2017-07-23T21:20:16.505Z,82.10
2017-07-23T21:22:44.078Z,82.60
2017-07-23T21:25:12.322Z,83.80
2017-07-23T21:27:39.825Z,83.70
2017-07-23T21:30:08.065Z,84.90
2017-07-23T21:32:35.896Z,84.70
2017-07-23T21:35:03.589Z,82.70
2017-07-23T21:37:31.321Z,83.00
2017-07-23T21:39:58.792Z,82.30
2017-07-23T21:42:26.280Z,80.80
2017-07-23T21:44:54.532Z,81.50
2017-07-23T21:47:22.002Z,81.40
2017-07-23T21:49:49.493Z,80.90
2017-07-23T21:52:17.729Z,83.00
2017-07-23T21:54:45.201Z,83.00
2017-07-23T21:57:12.693Z,83.20
2017-07-23T21:59:40.166Z,83.40
2017-07-23T22:02:08.573Z,83.10
2017-07-23T22:04:36.066Z,83.80
2017-07-23T22:07:04.301Z,84.10
2017-07-23T22:09:31.773Z,84.10
2017-07-23T22:11:59.266Z,82.50
2017-07-23T22:14:26.737Z,84.80
2017-07-23T22:29:56.822Z,84.70
2017-07-23T22:32:29.987Z,83.10
2017-07-23T22:35:03.863Z,84.40
2017-07-23T22:37:36.118Z,85.00
2017-07-23T22:40:10.980Z,85.40
2017-07-23T22:42:44.533Z,85.40
2017-07-23T22:45:12.133Z,85.40
2017-07-23T22:47:39.602Z,84.40
2017-07-23T22:50:07.077Z,84.30
2017-07-23T22:52:35.333Z,85.60
2017-07-23T22:55:02.803Z,85.50
2017-07-23T22:57:30.368Z,86.00
2017-07-23T22:59:58.633Z,87.80
2017-07-23T23:02:26.100Z,87.80
2017-07-23T23:04:54.337Z,88.10
2017-07-23T23:07:21.829Z,88.00
2017-07-23T23:09:49.300Z,89.90
2017-07-23T23:12:18.018Z,89.60
2017-07-23T23:14:46.341Z,88.50
2017-07-23T23:17:13.820Z,88.40
2017-07-23T23:19:42.338Z,88.40
2017-07-23T23:22:09.829Z,88.20
2017-07-23T23:24:37.298Z,89.10
2017-07-23T23:27:04.769Z,89.10
2017-07-23T23:29:33.128Z,88.10
2017-07-23T23:32:00.653Z,88.10
2017-07-23T23:34:28.120Z,89.70
2017-07-23T23:36:55.612Z,90.20
2017-07-23T23:39:24.334Z,89.70
2017-07-23T23:41:51.805Z,89.70
2017-07-23T23:44:19.292Z,88.50
2017-07-23T23:46:46.778Z,88.90
2017-07-23T23:49:15.013Z,88.00
2017-07-23T23:51:42.513Z,88.00
2017-07-23T23:54:10.765Z,88.80
2017-07-23T23:56:38.337Z,88.70
2017-07-23T23:59:06.613Z,89.00
